Bayshore, New York
Current Conditions -  °F | °C
As of 12:53 PM on Friday 28 Nov 2014 (Local Time) from KFRG Reporting Station
Broken Clouds Broken Clouds  
Wind Chill: 32°   Ceiling: 4200
Heat Index: 40°   Visibility: 10mi
Dew Point: 19°   Wind: 15mph
Humidity: 43%   Direction: 320°NW
Pressure: 30.13"   Gusts: 21mph
Location:  40.7379°N, 73.2632°W
Report Text: KFRG 281753Z 32013G18KT 10SM BKN042 04/M07 A3013 RMK AO2 SLP205 T00441072 10044 20000 56009
Loading
Personal Weather Stations






























Interactive Weather Map New forecast layout! Learn more

10-Day Weather Forecast

Advertisements
Track Severe Weather on mobile